createdAt,value
2023-04-08T00:00:21.424Z,16.59
2023-04-08T00:02:48.292Z,16.57
2023-04-08T00:05:15.255Z,16.60
2023-04-08T00:07:42.014Z,16.59
2023-04-08T00:10:09.378Z,16.58
2023-04-08T00:12:36.686Z,16.59
2023-04-08T00:15:03.789Z,16.57
2023-04-08T00:17:33.069Z,16.58
2023-04-08T00:20:00.541Z,16.58
2023-04-08T00:22:27.435Z,16.57
2023-04-08T00:24:54.414Z,16.56
2023-04-08T00:27:21.413Z,16.56
2023-04-08T00:29:48.498Z,16.56
2023-04-08T00:32:15.846Z,16.55
2023-04-08T00:34:43.640Z,16.56
2023-04-08T00:37:10.768Z,16.53
2023-04-08T00:39:37.918Z,16.53
2023-04-08T00:42:04.964Z,16.55
2023-04-08T00:44:31.870Z,16.55
2023-04-08T00:46:58.895Z,16.55
2023-04-08T00:49:26.460Z,16.54
2023-04-08T00:51:55.808Z,16.52
2023-04-08T00:54:22.756Z,16.50
2023-04-08T00:56:49.690Z,16.50
2023-04-08T00:59:17.983Z,16.53
2023-04-08T01:01:49.443Z,16.50
2023-04-08T01:04:16.935Z,16.51
2023-04-08T01:06:47.263Z,16.51
2023-04-08T01:09:14.114Z,16.49
2023-04-08T01:11:43.393Z,16.49
2023-04-08T01:14:12.367Z,16.51
2023-04-08T01:16:41.221Z,16.51
2023-04-08T01:19:10.762Z,16.49
2023-04-08T01:21:38.307Z,16.46
2023-04-08T01:24:08.333Z,16.44
2023-04-08T01:26:35.957Z,16.48
2023-04-08T01:29:03.368Z,16.48
2023-04-08T01:31:30.962Z,16.45
2023-04-08T01:33:58.011Z,16.46
2023-04-08T01:36:26.594Z,16.44
2023-04-08T01:38:53.620Z,16.47
2023-04-08T01:41:21.645Z,16.46
2023-04-08T01:43:49.102Z,16.46
2023-04-08T01:46:16.395Z,16.45
2023-04-08T01:48:43.738Z,16.41
2023-04-08T01:51:11.889Z,16.43
2023-04-08T01:53:38.889Z,16.44
2023-04-08T01:56:06.859Z,16.41
2023-04-08T01:58:38.789Z,16.42
2023-04-08T02:01:10.628Z,16.41
2023-04-08T02:03:37.987Z,16.42
2023-04-08T02:06:05.725Z,16.37
2023-04-08T02:08:33.802Z,16.40
2023-04-08T02:11:00.650Z,16.39
2023-04-08T02:13:28.086Z,16.39
2023-04-08T02:15:58.144Z,16.39
2023-04-08T02:18:27.953Z,16.37
2023-04-08T02:20:59.157Z,16.36
2023-04-08T02:23:29.648Z,16.37
2023-04-08T02:25:57.092Z,16.39
2023-04-08T02:28:23.967Z,16.40
2023-04-08T02:30:52.017Z,16.37
2023-04-08T02:33:20.703Z,16.35
2023-04-08T02:35:48.765Z,16.35
2023-04-08T02:38:16.123Z,16.35
2023-04-08T02:40:43.008Z,16.34
2023-04-08T02:43:09.818Z,16.37
2023-04-08T02:45:39.395Z,16.32
2023-04-08T02:48:06.617Z,16.32
2023-04-08T02:50:33.717Z,16.33
2023-04-08T02:53:00.527Z,16.35
2023-04-08T02:55:27.330Z,16.34
2023-04-08T02:57:54.133Z,16.34
2023-04-08T03:00:20.962Z,16.36
2023-04-08T03:02:48.012Z,16.32
2023-04-08T03:05:16.613Z,16.31
2023-04-08T03:07:43.409Z,16.31
2023-04-08T03:10:10.370Z,16.31
2023-04-08T03:12:37.166Z,16.32
2023-04-08T03:15:04.379Z,16.28
2023-04-08T03:17:34.066Z,16.28
2023-04-08T03:20:01.596Z,16.29
2023-04-08T03:22:28.457Z,16.30
2023-04-08T03:24:55.232Z,16.27
2023-04-08T03:27:22.195Z,16.29
2023-04-08T03:29:49.018Z,16.27
2023-04-08T03:32:16.240Z,16.25
2023-04-08T03:34:43.073Z,16.26
2023-04-08T03:37:09.939Z,16.27
2023-04-08T03:39:36.750Z,16.25
2023-04-08T03:42:03.911Z,16.28
2023-04-08T03:44:30.874Z,16.26
2023-04-08T03:46:59.938Z,16.25
2023-04-08T03:49:26.794Z,16.27
2023-04-08T03:51:53.751Z,16.28
2023-04-08T03:54:20.723Z,16.27
2023-04-08T03:56:49.799Z,16.24
2023-04-08T03:59:19.046Z,16.25
2023-04-08T04:01:46.664Z,16.23
2023-04-08T04:04:14.030Z,16.26
2023-04-08T04:06:40.979Z,16.24
2023-04-08T04:09:07.761Z,16.26
2023-04-08T04:11:35.957Z,16.23
2023-04-08T04:14:03.136Z,16.22
2023-04-08T04:16:32.809Z,16.24
2023-04-08T04:19:00.138Z,16.23
2023-04-08T04:21:27.484Z,16.25
2023-04-08T04:23:54.392Z,16.23
2023-04-08T04:26:21.451Z,16.24
2023-04-08T04:28:48.745Z,16.25
2023-04-08T04:31:19.060Z,16.24
2023-04-08T04:33:45.855Z,16.20
2023-04-08T04:36:12.716Z,16.23
2023-04-08T04:38:39.495Z,16.20
2023-04-08T04:41:06.500Z,16.19
2023-04-08T04:43:33.314Z,16.20
2023-04-08T04:46:00.948Z,16.19
2023-04-08T04:48:30.176Z,16.21
2023-04-08T04:50:57.447Z,16.22
2023-04-08T04:53:24.393Z,16.18
2023-04-08T04:55:51.813Z,16.17
2023-04-08T04:58:19.454Z,16.19
2023-04-08T05:00:47.073Z,16.21
2023-04-08T05:03:14.350Z,16.21
2023-04-08T05:05:42.016Z,16.18
2023-04-08T05:08:08.905Z,16.23
2023-04-08T05:10:35.736Z,16.19
2023-04-08T05:13:02.605Z,16.16
2023-04-08T05:15:29.587Z,16.17
2023-04-08T05:17:56.457Z,16.20
2023-04-08T05:20:23.358Z,16.19
2023-04-08T05:22:52.424Z,16.20
2023-04-08T05:25:19.421Z,16.17
2023-04-08T05:27:47.154Z,16.17
2023-04-08T05:30:16.256Z,16.19
2023-04-08T05:32:43.185Z,16.19
2023-04-08T05:35:10.451Z,16.20
2023-04-08T05:37:37.313Z,16.17
2023-04-08T05:40:04.544Z,16.15
2023-04-08T05:42:32.445Z,16.15
2023-04-08T05:44:59.380Z,16.15
2023-04-08T05:47:26.328Z,16.14
2023-04-08T05:49:53.328Z,16.15
2023-04-08T05:52:20.385Z,16.12
2023-04-08T05:54:47.710Z,16.13
2023-04-08T05:57:14.526Z,16.12
2023-04-08T05:59:41.442Z,16.14
2023-04-08T06:02:08.392Z,16.14
2023-04-08T06:04:35.556Z,16.13
2023-04-08T06:07:04.721Z,16.14
2023-04-08T06:09:34.801Z,16.14
2023-04-08T06:12:01.720Z,16.15
2023-04-08T06:14:28.627Z,16.14
2023-04-08T06:16:57.897Z,16.13
2023-04-08T06:19:25.146Z,16.14
2023-04-08T06:21:51.978Z,16.13
2023-04-08T06:24:18.925Z,16.14
2023-04-08T06:26:45.869Z,16.13
2023-04-08T06:29:12.732Z,16.13
2023-04-08T06:31:39.728Z,16.11
2023-04-08T06:34:08.851Z,16.13
2023-04-08T06:36:35.623Z,16.12
2023-04-08T06:39:02.540Z,16.12
2023-04-08T06:41:29.412Z,16.11
2023-04-08T06:43:57.257Z,16.11
2023-04-08T06:46:24.176Z,16.12
2023-04-08T06:48:51.661Z,16.10
2023-04-08T06:51:18.841Z,16.12
2023-04-08T06:53:45.717Z,16.10
2023-04-08T06:56:14.881Z,16.14
2023-04-08T06:58:41.675Z,16.10
2023-04-08T07:01:08.625Z,16.09
2023-04-08T07:03:35.889Z,16.10
2023-04-08T07:06:03.541Z,16.10
2023-04-08T07:08:30.421Z,16.10
2023-04-08T07:10:57.246Z,16.11
2023-04-08T07:13:24.210Z,16.12
2023-04-08T07:15:51.358Z,16.12
2023-04-08T07:18:18.232Z,16.10
2023-04-08T07:20:45.028Z,16.09
2023-04-08T07:23:11.873Z,16.09
2023-04-08T07:25:38.802Z,16.10
2023-04-08T07:28:05.765Z,16.12
2023-04-08T07:30:32.773Z,16.10
2023-04-08T07:33:01.105Z,16.10
2023-04-08T07:35:32.184Z,16.12
2023-04-08T07:37:59.076Z,16.11
2023-04-08T07:40:26.087Z,16.10
2023-04-08T07:42:55.190Z,16.13
2023-04-08T07:45:24.322Z,16.10
2023-04-08T07:47:51.282Z,16.12
2023-04-08T07:50:18.224Z,16.07
2023-04-08T07:52:45.171Z,16.11
2023-04-08T07:55:12.241Z,16.12
2023-04-08T07:57:39.369Z,16.12
2023-04-08T08:00:07.562Z,16.12
2023-04-08T08:02:36.940Z,16.12
2023-04-08T08:05:03.974Z,16.11
2023-04-08T08:07:31.242Z,16.11
2023-04-08T08:09:58.122Z,16.10
2023-04-08T08:12:24.984Z,16.11
2023-04-08T08:14:52.628Z,16.15
2023-04-08T08:17:19.697Z,16.12
2023-04-08T08:19:46.540Z,16.12
2023-04-08T08:22:16.648Z,16.11
2023-04-08T08:24:43.635Z,16.11
2023-04-08T08:27:11.634Z,16.11
2023-04-08T08:29:38.878Z,16.10
2023-04-08T08:32:05.820Z,16.13
2023-04-08T08:34:32.694Z,16.12
2023-04-08T08:36:59.692Z,16.13
2023-04-08T08:39:26.782Z,16.12
2023-04-08T08:41:53.853Z,16.15
2023-04-08T08:44:20.792Z,16.14
2023-04-08T08:46:48.535Z,16.14
2023-04-08T08:49:15.788Z,16.15
2023-04-08T08:51:44.216Z,16.14
2023-04-08T08:54:11.125Z,16.17
2023-04-08T08:56:38.035Z,16.15
2023-04-08T08:59:05.041Z,16.15
2023-04-08T09:01:33.097Z,16.15
2023-04-08T09:04:03.587Z,16.21
2023-04-08T09:06:31.413Z,16.19
2023-04-08T09:08:58.628Z,16.20
2023-04-08T09:11:26.582Z,16.20
2023-04-08T09:13:53.462Z,16.22
2023-04-08T09:16:20.563Z,16.23
2023-04-08T09:18:49.571Z,16.25
2023-04-08T09:21:17.928Z,16.23
2023-04-08T09:23:46.170Z,16.26
2023-04-08T09:26:13.555Z,16.23
2023-04-08T09:28:41.093Z,16.26
2023-04-08T09:31:11.194Z,16.25
2023-04-08T09:33:38.095Z,16.26
2023-04-08T09:36:05.618Z,16.31
2023-04-08T09:38:35.045Z,16.29
2023-04-08T09:41:07.372Z,16.29
2023-04-08T09:43:38.971Z,16.28
2023-04-08T09:46:08.160Z,16.32
2023-04-08T09:48:39.972Z,16.33
2023-04-08T09:51:07.048Z,16.34
2023-04-08T09:53:36.934Z,16.36
2023-04-08T09:56:07.686Z,16.38
2023-04-08T09:58:39.485Z,16.37
2023-04-08T10:01:08.478Z,16.40
2023-04-08T10:03:38.765Z,16.39
2023-04-08T10:06:08.536Z,16.41
2023-04-08T10:08:36.246Z,16.42
2023-04-08T10:11:03.204Z,16.46
2023-04-08T10:13:30.461Z,16.46
2023-04-08T10:16:00.754Z,16.49
2023-04-08T10:18:30.754Z,16.48
2023-04-08T10:20:58.022Z,16.49
2023-04-08T10:23:44.944Z,16.49
2023-04-08T10:26:30.766Z,16.50
2023-04-08T10:29:17.677Z,16.50
2023-04-08T10:31:46.565Z,16.55
2023-04-08T10:34:18.067Z,16.55
2023-04-08T10:36:45.838Z,16.57
2023-04-08T10:39:13.828Z,16.59
2023-04-08T10:41:44.000Z,16.57
2023-04-08T10:44:13.922Z,16.61
2023-04-08T10:46:41.759Z,16.62
2023-04-08T10:49:09.238Z,16.64
2023-04-08T10:51:38.680Z,16.65
2023-04-08T10:54:07.767Z,16.64
2023-04-08T10:56:36.010Z,16.61
2023-04-08T10:59:03.836Z,16.63
2023-04-08T11:01:38.871Z,16.61
2023-04-08T11:04:09.344Z,16.62
2023-04-08T11:06:37.780Z,16.63
2023-04-08T11:09:04.761Z,16.61
2023-04-08T11:11:32.313Z,16.66
2023-04-08T11:13:59.367Z,16.63
2023-04-08T11:16:28.414Z,16.64
2023-04-08T11:18:55.996Z,16.65
2023-04-08T11:21:24.262Z,16.65
2023-04-08T11:23:52.343Z,16.65
2023-04-08T11:26:20.299Z,16.67
2023-04-08T11:28:49.575Z,16.66
2023-04-08T11:31:16.690Z,16.68
2023-04-08T11:33:47.142Z,16.69
2023-04-08T11:36:14.268Z,16.69
2023-04-08T11:38:42.105Z,16.68
2023-04-08T11:41:10.020Z,16.71
2023-04-08T11:43:37.105Z,16.74
2023-04-08T11:46:11.847Z,16.75
2023-04-08T11:48:39.404Z,16.81
2023-04-08T11:51:09.488Z,16.80
2023-04-08T11:53:38.256Z,16.84
2023-04-08T11:56:08.294Z,16.82
2023-04-08T11:58:38.265Z,16.82
2023-04-08T12:01:05.182Z,16.84
2023-04-08T12:03:32.418Z,16.82
2023-04-08T12:05:59.989Z,16.78
2023-04-08T12:08:27.000Z,16.79
2023-04-08T12:10:53.882Z,16.80
2023-04-08T12:13:21.287Z,16.84
2023-04-08T12:15:51.985Z,16.88
2023-04-08T12:18:19.017Z,16.87
2023-04-08T12:20:45.952Z,16.86
2023-04-08T12:23:13.064Z,16.86
2023-04-08T12:25:40.140Z,16.82
2023-04-08T12:28:07.175Z,16.81
2023-04-08T12:30:34.222Z,16.82
2023-04-08T12:33:01.179Z,16.78
2023-04-08T12:35:28.246Z,16.84
2023-04-08T12:37:55.151Z,16.87
2023-04-08T12:40:22.033Z,16.91
2023-04-08T12:42:48.927Z,16.93
2023-04-08T12:45:16.229Z,16.89
2023-04-08T12:47:43.359Z,16.93
2023-04-08T12:50:10.720Z,16.89
2023-04-08T12:52:37.594Z,16.91
2023-04-08T12:55:04.912Z,16.91
2023-04-08T12:57:32.350Z,16.95
2023-04-08T12:59:59.246Z,16.99
2023-04-08T13:02:27.617Z,17.00
2023-04-08T13:04:55.646Z,16.97
2023-04-08T13:07:22.775Z,16.98
2023-04-08T13:09:49.633Z,16.96
2023-04-08T13:12:16.637Z,16.96
2023-04-08T13:14:43.568Z,16.98
2023-04-08T13:17:10.851Z,16.96
2023-04-08T13:19:37.772Z,16.93
2023-04-08T13:22:04.697Z,16.92
2023-04-08T13:24:31.702Z,16.97
2023-04-08T13:26:58.662Z,17.00
2023-04-08T13:29:25.579Z,17.02
2023-04-08T13:31:53.713Z,17.03
2023-04-08T13:34:20.792Z,17.07
2023-04-08T13:36:47.715Z,17.05
2023-04-08T13:39:14.651Z,17.05
2023-04-08T13:41:41.765Z,17.05
2023-04-08T13:44:08.989Z,17.02
2023-04-08T13:46:36.022Z,17.01
2023-04-08T13:49:03.539Z,17.01
2023-04-08T13:51:31.819Z,17.01
2023-04-08T13:53:58.693Z,17.00
2023-04-08T13:56:25.893Z,16.99
2023-04-08T13:58:57.337Z,16.97
2023-04-08T14:01:24.896Z,16.98
2023-04-08T14:03:51.965Z,16.96
2023-04-08T14:06:18.803Z,16.91
2023-04-08T14:08:45.776Z,16.92
2023-04-08T14:11:13.027Z,16.89
2023-04-08T14:13:40.220Z,16.92
2023-04-08T14:16:07.193Z,16.91
2023-04-08T14:18:34.093Z,16.96
2023-04-08T14:21:01.221Z,16.92
2023-04-08T14:23:28.358Z,16.94
2023-04-08T14:25:55.326Z,16.93
2023-04-08T14:28:22.242Z,16.95
2023-04-08T14:30:49.314Z,16.97
2023-04-08T14:33:16.475Z,17.00
2023-04-08T14:35:43.460Z,17.00
2023-04-08T14:38:10.420Z,17.00
2023-04-08T14:40:37.904Z,16.97
2023-04-08T14:43:05.544Z,17.00
2023-04-08T14:45:33.455Z,16.98
2023-04-08T14:48:02.929Z,16.99
2023-04-08T14:50:30.915Z,16.97
2023-04-08T14:52:57.903Z,16.99
2023-04-08T14:55:25.627Z,16.96
2023-04-08T14:57:52.558Z,16.94
2023-04-08T15:00:19.518Z,16.94
2023-04-08T15:02:46.666Z,16.94
2023-04-08T15:05:13.756Z,16.92
2023-04-08T15:07:40.989Z,16.94
2023-04-08T15:10:08.385Z,16.96
2023-04-08T15:12:35.358Z,16.97
2023-04-08T15:15:02.680Z,16.98
2023-04-08T15:17:29.619Z,17.04
2023-04-08T15:19:56.748Z,17.04
2023-04-08T15:22:23.639Z,17.04
2023-04-08T15:24:50.685Z,17.02
2023-04-08T15:27:17.777Z,17.02
2023-04-08T15:29:45.014Z,17.00
2023-04-08T15:32:12.429Z,17.00
2023-04-08T15:34:39.458Z,16.99
2023-04-08T15:37:06.721Z,16.97
2023-04-08T15:39:33.579Z,16.95
2023-04-08T15:42:01.720Z,16.98
2023-04-08T15:44:31.652Z,16.97
2023-04-08T15:46:58.810Z,16.98
2023-04-08T15:49:26.079Z,17.01
2023-04-08T15:51:54.102Z,17.03
2023-04-08T15:54:21.502Z,17.04
2023-04-08T15:56:48.367Z,17.03
2023-04-08T15:59:15.246Z,17.03
2023-04-08T16:01:42.371Z,17.06
2023-04-08T16:04:09.494Z,17.05
2023-04-08T16:06:36.984Z,17.04
2023-04-08T16:09:03.948Z,17.06
2023-04-08T16:11:31.002Z,17.06
2023-04-08T16:13:58.320Z,17.08
2023-04-08T16:16:25.283Z,17.08
2023-04-08T16:18:53.038Z,17.06
2023-04-08T16:21:20.120Z,17.07
2023-04-08T16:23:47.317Z,17.07
2023-04-08T16:26:14.689Z,17.03
2023-04-08T16:28:41.516Z,17.05
2023-04-08T16:31:08.549Z,17.02
2023-04-08T16:33:35.708Z,17.01
2023-04-08T16:36:04.568Z,16.99
2023-04-08T16:38:31.583Z,17.00
2023-04-08T16:40:59.084Z,16.97
2023-04-08T16:43:26.769Z,17.00
2023-04-08T16:45:56.511Z,16.98
2023-04-08T16:48:23.620Z,16.97
2023-04-08T16:50:50.674Z,16.95
2023-04-08T16:53:17.682Z,16.98
2023-04-08T16:55:44.871Z,16.97
2023-04-08T16:58:11.968Z,16.98
2023-04-08T17:00:39.269Z,16.97
2023-04-08T17:03:06.627Z,16.98
2023-04-08T17:05:36.196Z,16.94
2023-04-08T17:08:03.611Z,16.95
2023-04-08T17:10:33.968Z,16.97
2023-04-08T17:13:00.882Z,16.95
2023-04-08T17:15:27.858Z,16.97
2023-04-08T17:17:54.779Z,16.96
2023-04-08T17:20:22.615Z,16.94
2023-04-08T17:22:52.137Z,16.95
2023-04-08T17:25:19.169Z,16.94
2023-04-08T17:27:46.144Z,16.95
2023-04-08T17:30:13.477Z,16.94
2023-04-08T17:32:40.444Z,16.94
2023-04-08T17:35:07.772Z,16.92
2023-04-08T17:37:34.689Z,16.92
2023-04-08T17:40:01.808Z,16.94
2023-04-08T17:42:28.710Z,16.94
2023-04-08T17:44:56.378Z,16.93
2023-04-08T17:47:23.444Z,16.93
2023-04-08T17:49:50.526Z,16.92
2023-04-08T17:52:17.509Z,16.92
2023-04-08T17:54:44.460Z,16.92
2023-04-08T17:57:11.431Z,16.92
2023-04-08T17:59:38.337Z,16.92
2023-04-08T18:02:05.473Z,16.93
2023-04-08T18:04:34.707Z,16.95
2023-04-08T18:07:04.193Z,16.90
2023-04-08T18:09:33.343Z,16.94
2023-04-08T18:12:00.291Z,16.92
2023-04-08T18:14:28.837Z,16.88
2023-04-08T18:16:55.832Z,16.91
2023-04-08T18:19:24.966Z,16.90
2023-04-08T18:21:51.921Z,16.94
2023-04-08T18:24:19.471Z,16.90
2023-04-08T18:26:51.729Z,16.92
2023-04-08T18:29:21.910Z,16.87
2023-04-08T18:31:48.922Z,16.91
2023-04-08T18:34:15.844Z,16.90
2023-04-08T18:36:42.747Z,16.90
2023-04-08T18:39:09.713Z,16.90
2023-04-08T18:41:37.685Z,16.89
2023-04-08T18:44:04.602Z,16.93
2023-04-08T18:46:31.816Z,16.92
2023-04-08T18:48:59.475Z,16.93
2023-04-08T18:51:27.001Z,16.96
2023-04-08T18:53:54.093Z,16.90
2023-04-08T18:56:21.587Z,16.87
2023-04-08T18:58:49.981Z,16.92
2023-04-08T19:01:17.180Z,16.88
2023-04-08T19:03:44.167Z,16.92
2023-04-08T19:06:12.635Z,16.88
2023-04-08T19:08:41.764Z,16.86
2023-04-08T19:11:08.608Z,16.85
2023-04-08T19:13:35.683Z,16.85
2023-04-08T19:16:02.692Z,16.88
2023-04-08T19:18:29.636Z,16.87
2023-04-08T19:20:56.511Z,16.86
2023-04-08T19:23:23.410Z,16.88
2023-04-08T19:25:51.174Z,16.88
2023-04-08T19:28:18.074Z,16.85
2023-04-08T19:30:45.058Z,16.87
2023-04-08T19:33:12.028Z,16.85
2023-04-08T19:35:39.088Z,16.85
2023-04-08T19:38:08.657Z,16.86
2023-04-08T19:40:35.690Z,16.88
2023-04-08T19:43:02.766Z,16.88
2023-04-08T19:45:29.692Z,16.87
2023-04-08T19:47:56.628Z,16.88
2023-04-08T19:50:23.742Z,16.87
2023-04-08T19:52:50.607Z,16.88
2023-04-08T19:55:17.557Z,16.86
2023-04-08T19:57:44.466Z,16.85
2023-04-08T20:00:14.011Z,16.87
2023-04-08T20:02:41.482Z,16.86
2023-04-08T20:05:09.047Z,16.88
2023-04-08T20:07:36.035Z,16.87
2023-04-08T20:10:02.844Z,16.86
2023-04-08T20:12:30.879Z,16.86
2023-04-08T20:14:57.727Z,16.85
2023-04-08T20:17:24.816Z,16.84
2023-04-08T20:19:51.705Z,16.79
2023-04-08T20:22:18.835Z,16.81
2023-04-08T20:24:46.052Z,16.86
2023-04-08T20:27:13.037Z,16.86
2023-04-08T20:29:42.182Z,16.85
2023-04-08T20:32:09.785Z,16.85
2023-04-08T20:34:36.630Z,16.86
2023-04-08T20:37:05.797Z,16.86
2023-04-08T20:39:32.714Z,16.86
2023-04-08T20:41:59.788Z,16.85
2023-04-08T20:44:26.959Z,16.86
2023-04-08T20:46:53.867Z,16.86
2023-04-08T20:49:20.804Z,16.87
2023-04-08T20:51:47.857Z,16.86
2023-04-08T20:54:14.892Z,16.85
2023-04-08T20:56:42.282Z,16.86
2023-04-08T20:59:09.127Z,16.85
2023-04-08T21:01:36.232Z,16.85
2023-04-08T21:04:05.124Z,16.85
2023-04-08T21:06:32.784Z,16.84
2023-04-08T21:08:59.676Z,16.85
2023-04-08T21:11:28.778Z,16.85
2023-04-08T21:13:56.635Z,16.86
2023-04-08T21:16:23.510Z,16.86
2023-04-08T21:18:50.777Z,16.84
2023-04-08T21:21:17.784Z,16.85
2023-04-08T21:23:49.406Z,16.85
2023-04-08T21:26:18.489Z,16.85
2023-04-08T21:28:45.504Z,16.84
2023-04-08T21:31:13.220Z,16.85
2023-04-08T21:33:40.108Z,16.84
2023-04-08T21:36:07.540Z,16.85
2023-04-08T21:38:34.999Z,16.85
2023-04-08T21:41:01.943Z,16.83
2023-04-08T21:43:31.004Z,16.85
2023-04-08T21:45:57.932Z,16.83
2023-04-08T21:48:25.036Z,16.82
2023-04-08T21:50:52.066Z,16.81
2023-04-08T21:53:18.993Z,16.82
2023-04-08T21:55:45.920Z,16.81
2023-04-08T21:58:12.922Z,16.82
2023-04-08T22:00:39.846Z,16.80
2023-04-08T22:03:07.788Z,16.79
2023-04-08T22:05:34.906Z,16.83
2023-04-08T22:08:02.377Z,16.82
2023-04-08T22:10:29.311Z,16.77
2023-04-08T22:12:56.163Z,16.78
2023-04-08T22:15:28.699Z,16.80
2023-04-08T22:17:56.248Z,16.80
2023-04-08T22:20:25.441Z,16.79
2023-04-08T22:22:52.372Z,16.79
2023-04-08T22:25:19.361Z,16.81
2023-04-08T22:27:46.426Z,16.80
2023-04-08T22:30:13.474Z,16.80
2023-04-08T22:32:40.411Z,16.77
2023-04-08T22:35:07.520Z,16.79
2023-04-08T22:37:34.397Z,16.76
2023-04-08T22:40:01.352Z,16.78
2023-04-08T22:42:28.363Z,16.78
2023-04-08T22:44:57.556Z,16.79
2023-04-08T22:47:24.571Z,16.79
2023-04-08T22:49:51.411Z,16.79
2023-04-08T22:52:18.322Z,16.76
2023-04-08T22:54:45.169Z,16.79
2023-04-08T22:57:11.993Z,16.78
2023-04-08T22:59:38.852Z,16.78
2023-04-08T23:02:05.913Z,16.78
2023-04-08T23:04:33.007Z,16.79
2023-04-08T23:06:59.859Z,16.78
2023-04-08T23:09:27.465Z,16.79
2023-04-08T23:11:54.309Z,16.77
2023-04-08T23:14:21.098Z,16.78
2023-04-08T23:16:47.999Z,16.76
2023-04-08T23:19:14.830Z,16.75
2023-04-08T23:21:41.732Z,16.76
2023-04-08T23:24:08.646Z,16.75
2023-04-08T23:26:35.470Z,16.77
2023-04-08T23:29:02.388Z,16.77
2023-04-08T23:31:29.212Z,16.76
2023-04-08T23:33:56.025Z,16.75
2023-04-08T23:36:22.892Z,16.76
2023-04-08T23:38:50.090Z,16.75
2023-04-08T23:41:17.087Z,16.72
2023-04-08T23:43:43.896Z,16.76
2023-04-08T23:46:10.873Z,16.75
2023-04-08T23:48:37.735Z,16.75
2023-04-08T23:51:04.754Z,16.74
2023-04-08T23:53:31.853Z,16.71
2023-04-08T23:56:01.746Z,16.71
2023-04-08T23:58:28.581Z,16.73
